Aviation Digital Data Service (ADDS)

Output produced by METARs form (1407 UTC 23 March 2017)
found at http://www.aviationweather.gov/adds/metars/
 
METAR text: KOLM 231354Z AUTO 24006KT 10SM BKN075 04/03 A3009 RMK AO2 SLP190 T00390033
Conditions at: KOLM (OLYMPIA , WA, US) observed 1354 UTC 23 March 2017
Temperature: 3.9°C (39°F)
Dewpoint: 3.3°C (38°F) [RH = 96%]
Pressure (altimeter): 30.09 inches Hg (1019.0 mb)
[Sea-level pressure: 1019.0 mb]
Winds: from the WSW (240 degrees) at 7 MPH (6 knots; 3.1 m/s)
Visibility: 10 or more miles (16+ km)
Ceiling: 7500 feet AGL
Clouds: broken clouds at 7500 feet AGL
Weather: automated observation with no human augmentation;
there may or may not be significant weather present at this time